Orbital elements of ORBCOMM FM09
| Launched | 22 December 1997 |
| Flight ended | – |
| Launch site | Eastern Range Airspace |
| Owner | ORBCOMM |
| NORAD ID | 25116 |
| Alternative names |
SLOT A5 |
| Date fetched |
Epoch osculation |
Inc. [°] |
Ecc. | RA asc node [hr] |
Arg Peri. [°] |
Mean anom [°] |
Mean motion [rev/day] |
Abs. mag |
| Date fetched |
Epoch osculation |
Inc. [°] |
Ecc. | RA asc node [hr] |
Arg Peri. [°] |
Mean anom [°] |
Mean motion [rev/day] |
Abs. mag |
| 2026 May 03 17:57 | 2026 Apr 30 12:32:34 | 45.0150 | 0.00047 | 19.2114 | 14.7010 | 345.3978 | 14.46440 | 9.743 |
| 2026 May 02 17:57 | 2026 Apr 30 12:32:34 | 45.0150 | 0.00047 | 19.2114 | 14.7010 | 345.3978 | 14.46440 | 9.743 |
| 2026 May 01 17:56 | 2026 Apr 30 12:32:34 | 45.0150 | 0.00047 | 19.2114 | 14.7010 | 345.3978 | 14.46440 | 9.743 |
| 2026 Apr 30 17:56 | 2026 Apr 30 12:32:34 | 45.0150 | 0.00047 | 19.2114 | 14.7010 | 345.3978 | 14.46440 | 9.743 |
| 2026 Apr 29 17:57 | 2026 Apr 24 12:19:42 | 45.0152 | 0.00053 | 21.1364 | 344.6465 | 345.3978 | 14.46440 | 9.743 |
| 2026 Apr 28 17:56 | 2026 Apr 24 12:19:42 | 45.0152 | 0.00053 | 21.1364 | 344.6465 | 345.3978 | 14.46440 | 9.743 |
| 2026 Apr 27 17:58 | 2026 Apr 24 12:19:42 | 45.0152 | 0.00053 | 21.1364 | 344.6465 | 345.3978 | 14.46440 | 9.743 |
| 2026 Apr 26 17:58 | 2026 Apr 24 12:19:42 | 45.0152 | 0.00053 | 21.1364 | 344.6465 | 345.3978 | 14.46440 | 9.743 |
| 2026 Apr 25 17:58 | 2026 Apr 24 12:19:42 | 45.0152 | 0.00053 | 21.1364 | 344.6465 | 345.3978 | 14.46440 | 9.743 |
| 2026 Apr 24 17:59 | 2026 Apr 24 12:19:42 | 45.0152 | 0.00053 | 21.1364 | 344.6465 | 345.3978 | 14.46440 | 9.743 |
| 2026 Apr 23 17:57 | 2026 Apr 19 08:00:15 | 45.0161 | 0.00058 | 22.7958 | 320.4139 | 345.3978 | 14.46440 | 9.743 |
| 2026 Apr 22 17:57 | 2026 Apr 19 08:00:15 | 45.0161 | 0.00058 | 22.7958 | 320.4139 | 345.3978 | 14.46440 | 9.743 |
| 2026 Apr 21 17:57 | 2026 Apr 19 08:00:15 | 45.0161 | 0.00058 | 22.7958 | 320.4139 | 345.3978 | 14.46440 | 9.743 |
| 2026 Apr 20 17:57 | 2026 Apr 19 08:00:15 | 45.0161 | 0.00058 | 22.7958 | 320.4139 | 345.3978 | 14.46440 | 9.743 |
| 2026 Apr 19 17:58 | 2026 Apr 19 08:00:15 | 45.0161 | 0.00058 | 22.7958 | 320.4139 | 345.3978 | 14.46440 | 9.743 |
| 2026 Apr 18 17:56 | 2026 Apr 14 00:21:51 | 45.0162 | 0.00062 | 0.4994 | 296.7862 | 345.3978 | 14.46440 | 9.743 |
| 2026 Apr 16 17:57 | 2026 Apr 14 00:21:51 | 45.0162 | 0.00062 | 0.4994 | 296.7862 | 345.3978 | 14.46440 | 9.743 |
| 2026 Apr 14 17:57 | 2026 Apr 14 00:21:51 | 45.0162 | 0.00062 | 0.4994 | 296.7862 | 345.3978 | 14.46440 | 9.743 |
| 2026 Apr 13 17:57 | 2026 Apr 13 01:09:25 | 45.0163 | 0.00062 | 0.8092 | 292.5953 | 345.3978 | 14.46440 | 9.743 |
| 2026 Apr 12 17:57 | 2026 Apr 12 01:56:58 | 45.0163 | 0.00063 | 1.1189 | 288.3806 | 345.3978 | 14.46440 | 9.743 |
| 2026 Apr 11 17:57 | 2026 Apr 11 11:01:49 | 45.0163 | 0.00063 | 1.3180 | 285.6937 | 345.3978 | 14.46440 | 9.743 |
| 2026 Apr 10 17:58 | 2026 Apr 10 05:11:32 | 45.0161 | 0.00064 | 1.7163 | 280.3115 | 345.3978 | 14.46440 | 9.743 |
| 2026 Apr 09 18:01 | 2026 Apr 09 04:19:38 | 45.0160 | 0.00064 | 2.0481 | 275.8247 | 345.3978 | 14.46440 | 9.743 |
| 2026 Apr 08 17:57 | 2026 Apr 08 05:07:10 | 45.0152 | 0.00064 | 2.3579 | 271.3511 | 345.3978 | 14.46440 | 9.743 |
| 2026 Apr 07 17:57 | 2026 Apr 07 05:54:43 | 45.0151 | 0.00065 | 2.6676 | 267.2074 | 345.3978 | 14.46440 | 9.743 |
| 2026 Apr 06 17:57 | 2026 Apr 06 05:02:48 | 45.0150 | 0.00065 | 2.9995 | 262.7539 | 345.3978 | 14.46440 | 9.743 |